Spencer Creek (Missouri), Plum Creek (05508805)

StateMissouriLatestFlood (907 cfs)
RiverSpencer CreekRatingObservedEstimated
Updated2020-02-25 14:30 (35 minutes ago)Flood - The river is flooding. Obstacles can be treacherous or deadly. The river should be avoided at this stage for casual trips and definitely for the inexperienced. Trips should be attempted only with protective gear and equipment.Flood(none)792
Discharge907 cfs (median: 57 cfs)High - The river is high and potentially dangerous, especially for the young and / or inexperienced. Normal stream obstacles are sometimes difficult to navigate. Extended distances can be attempted, but canoe travel may not be advisable.High(none)167
Height5.51 feetGood - Conditions are ideal for a canoe or kayak. Boats typically will drag on fewer than one-quarter of riffles, if at all, and portages are unnecessary or rare. Normal float lengths can be attempted without a problem.Good(none)57
TrendFalling (rising over 24 hours)Low - River is low but can still be floated. Some riffles are okay but most come with significant dragging and might need a portage. Float lengths should be reduced to accommodate low flow, dragging, and portages.Low(none)30
USGSExternal icon USGS Site (External icon Google Maps)Poor - River is too low to float comfortably. Most or all riffles will drag or must be portaged and some obstacles (such as slick shelf rock) cause undue problems. Avoid the river at this stage for casual paddling trips.Poor(none)6

Trending Data

Plot Image

Trips for Spencer Creek (Missouri), Plum Creek (05508805)

DateStartEndDistanceConditionDischargeHeightFishingDetails

A total of 0 rows are displayed.

Condition Descriptions

Fishing Conditions

Fish Species

Notes

Classic Trip List

The classic River Trips application is still available for use. It is updated with the new system using a data retrofit. It is no longer maintained. The original River Trips application is no longer updated (as of 1 Dec 2016) but can be checked for errors or for the condition of the data before it was converted to the new system.

Gauge Data Table

ObservationHeightDischargeMaximum
Discharge
Minimum
Discharge
Mean
Discharge
P05P10P20P25P50
(Median)
P75P80P90P95
2020-02-25 14:30 5.51 907 3540 (2001) 1 (2006) 219 3 6 18 24 57 122 192 332 1840
2020-02-25 14:00 5.54 921 3540 (2001) 1 (2006) 219 3 6 18 24 57 122 192 332 1840
2020-02-25 13:30 5.56 931 3540 (2001) 1 (2006) 219 3 6 18 24 57 122 192 332 1840
2020-02-25 13:00 5.57 936 3540 (2001) 1 (2006) 219 3 6 18 24 57 122 192 332 1840
2020-02-25 12:30 5.57 936 3540 (2001) 1 (2006) 219 3 6 18 24 57 122 192 332 1840
2020-02-25 12:00 5.54 921 3540 (2001) 1 (2006) 219 3 6 18 24 57 122 192 332 1840
2020-02-25 11:30 5.53 917 3540 (2001) 1 (2006) 219 3 6 18 24 57 122 192 332 1840
2020-02-25 11:00 5.50 903 3540 (2001) 1 (2006) 219 3 6 18 24 57 122 192 332 1840
2020-02-25 10:00 5.44 875 3540 (2001) 1 (2006) 219 3 6 18 24 57 122 192 332 1840
2020-02-25 09:30 5.43 870 3540 (2001) 1 (2006) 219 3 6 18 24 57 122 192 332 1840
2020-02-25 09:00 5.44 875 3540 (2001) 1 (2006) 219 3 6 18 24 57 122 192 332 1840
2020-02-25 08:30 5.44 875 3540 (2001) 1 (2006) 219 3 6 18 24 57 122 192 332 1840
2020-02-25 08:00 5.46 884 3540 (2001) 1 (2006) 219 3 6 18 24 57 122 192 332 1840
2020-02-25 07:30 5.49 898 3540 (2001) 1 (2006) 219 3 6 18 24 57 122 192 332 1840
2020-02-25 07:00 5.50 903 3540 (2001) 1 (2006) 219 3 6 18 24 57 122 192 332 1840
2020-02-25 06:30 5.54 921 3540 (2001) 1 (2006) 219 3 6 18 24 57 122 192 332 1840
2020-02-25 06:00 5.58 940 3540 (2001) 1 (2006) 219 3 6 18 24 57 122 192 332 1840
2020-02-25 05:30 5.63 964 3540 (2001) 1 (2006) 219 3 6 18 24 57 122 192 332 1840
2020-02-25 05:00 5.67 984 3540 (2001) 1 (2006) 219 3 6 18 24 57 122 192 332 1840
2020-02-25 04:30 5.75 1020 3540 (2001) 1 (2006) 219 3 6 18 24 57 122 192 332 1840
2020-02-25 04:00 5.79 1040 3540 (2001) 1 (2006) 219 3 6 18 24 57 122 192 332 1840
2020-02-25 03:30 5.84 1070 3540 (2001) 1 (2006) 219 3 6 18 24 57 122 192 332 1840
2020-02-25 03:00 5.87 1080 3540 (2001) 1 (2006) 219 3 6 18 24 57 122 192 332 1840
2020-02-25 02:30 5.88 1090 3540 (2001) 1 (2006) 219 3 6 18 24 57 122 192 332 1840
2020-02-25 02:00 5.87 1080 3540 (2001) 1 (2006) 219 3 6 18 24 57 122 192 332 1840
2020-02-25 01:30 5.84 1070 3540 (2001) 1 (2006) 219 3 6 18 24 57 122 192 332 1840
2020-02-25 01:00 5.80 1050 3540 (2001) 1 (2006) 219 3 6 18 24 57 122 192 332 1840
2020-02-25 00:30 5.77 1030 3540 (2001) 1 (2006) 219 3 6 18 24 57 122 192 332 1840
2020-02-25 00:00 5.66 979 3540 (2001) 1 (2006) 219 3 6 18 24 57 122 192 332 1840
2020-02-24 23:30 5.51 907 3980 (2001) 1 (2006) 323 4 6 16 26 64 170 261 1370 2250
2020-02-24 23:00 5.30 812 3980 (2001) 1 (2006) 323 4 6 16 26 64 170 261 1370 2250
2020-02-24 22:30 5.04 701 3980 (2001) 1 (2006) 323 4 6 16 26 64 170 261 1370 2250
2020-02-24 22:00 4.81 611 3980 (2001) 1 (2006) 323 4 6 16 26 64 170 261 1370 2250
2020-02-24 21:30 4.57 523 3980 (2001) 1 (2006) 323 4 6 16 26 64 170 261 1370 2250
2020-02-24 21:00 4.19 397 3980 (2001) 1 (2006) 323 4 6 16 26 64 170 261 1370 2250
2020-02-24 20:30 3.72 266 3980 (2001) 1 (2006) 323 4 6 16 26 64 170 261 1370 2250
2020-02-24 20:00 3.49 211 3980 (2001) 1 (2006) 323 4 6 16 26 64 170 261 1370 2250
2020-02-24 19:30 3.32 175 3980 (2001) 1 (2006) 323 4 6 16 26 64 170 261 1370 2250
2020-02-24 19:00 3.20 152 3980 (2001) 1 (2006) 323 4 6 16 26 64 170 261 1370 2250
2020-02-24 18:30 3.07 128 3980 (2001) 1 (2006) 323 4 6 16 26 64 170 261 1370 2250
2020-02-24 18:00 2.97 112 3980 (2001) 1 (2006) 323 4 6 16 26 64 170 261 1370 2250
2020-02-24 17:30 2.88 98 3980 (2001) 1 (2006) 323 4 6 16 26 64 170 261 1370 2250
2020-02-24 17:00 2.76 81 3980 (2001) 1 (2006) 323 4 6 16 26 64 170 261 1370 2250
2020-02-24 16:30 2.68 70 3980 (2001) 1 (2006) 323 4 6 16 26 64 170 261 1370 2250
2020-02-24 16:00 2.64 65 3980 (2001) 1 (2006) 323 4 6 16 26 64 170 261 1370 2250
2020-02-24 15:30 2.58 58 3980 (2001) 1 (2006) 323 4 6 16 26 64 170 261 1370 2250
2020-02-24 15:00 2.53 52 3980 (2001) 1 (2006) 323 4 6 16 26 64 170 261 1370 2250
2020-02-24 14:30 2.52 51 3980 (2001) 1 (2006) 323 4 6 16 26 64 170 261 1370 2250
2020-02-24 14:00 2.52 51 3980 (2001) 1 (2006) 323 4 6 16 26 64 170 261 1370 2250
2020-02-24 13:30 2.50 49 3980 (2001) 1 (2006) 323 4 6 16 26 64 170 261 1370 2250
2020-02-24 13:00 2.51 50 3980 (2001) 1 (2006) 323 4 6 16 26 64 170 261 1370 2250
2020-02-24 12:30 2.54 54 3980 (2001) 1 (2006) 323 4 6 16 26 64 170 261 1370 2250
2020-02-24 12:00 2.50 49 3980 (2001) 1 (2006) 323 4 6 16 26 64 170 261 1370 2250
2020-02-24 11:30 2.49 48 3980 (2001) 1 (2006) 323 4 6 16 26 64 170 261 1370 2250
2020-02-24 11:00 2.49 48 3980 (2001) 1 (2006) 323 4 6 16 26 64 170 261 1370 2250
2020-02-24 10:30 2.50 49 3980 (2001) 1 (2006) 323 4 6 16 26 64 170 261 1370 2250
2020-02-24 10:00 2.51 50 3980 (2001) 1 (2006) 323 4 6 16 26 64 170 261 1370 2250
2020-02-24 09:30 2.49 48 3980 (2001) 1 (2006) 323 4 6 16 26 64 170 261 1370 2250
2020-02-24 09:00 2.48 47 3980 (2001) 1 (2006) 323 4 6 16 26 64 170 261 1370 2250
2020-02-24 08:30 2.49 48 3980 (2001) 1 (2006) 323 4 6 16 26 64 170 261 1370 2250
2020-02-24 08:00 2.47 46 3980 (2001) 1 (2006) 323 4 6 16 26 64 170 261 1370 2250
2020-02-24 07:30 2.49 48 3980 (2001) 1 (2006) 323 4 6 16 26 64 170 261 1370 2250
2020-02-24 07:00 2.46 45 3980 (2001) 1 (2006) 323 4 6 16 26 64 170 261 1370 2250
2020-02-24 06:30 2.48 47 3980 (2001) 1 (2006) 323 4 6 16 26 64 170 261 1370 2250
2020-02-24 06:00 2.43 42 3980 (2001) 1 (2006) 323 4 6 16 26 64 170 261 1370 2250
2020-02-24 05:30 2.43 42 3980 (2001) 1 (2006) 323 4 6 16 26 64 170 261 1370 2250
2020-02-24 05:00 2.41 40 3980 (2001) 1 (2006) 323 4 6 16 26 64 170 261 1370 2250
2020-02-24 04:30 2.41 40 3980 (2001) 1 (2006) 323 4 6 16 26 64 170 261 1370 2250
2020-02-24 04:00 2.43 42 3980 (2001) 1 (2006) 323 4 6 16 26 64 170 261 1370 2250
2020-02-24 03:30 2.42 41 3980 (2001) 1 (2006) 323 4 6 16 26 64 170 261 1370 2250
2020-02-24 03:00 2.43 42 3980 (2001) 1 (2006) 323 4 6 16 26 64 170 261 1370 2250
2020-02-24 02:30 2.42 41 3980 (2001) 1 (2006) 323 4 6 16 26 64 170 261 1370 2250
2020-02-24 02:00 2.41 40 3980 (2001) 1 (2006) 323 4 6 16 26 64 170 261 1370 2250
2020-02-24 01:30 2.44 43 3980 (2001) 1 (2006) 323 4 6 16 26 64 170 261 1370 2250
2020-02-24 01:00 2.42 41 3980 (2001) 1 (2006) 323 4 6 16 26 64 170 261 1370 2250
2020-02-24 00:30 2.40 39 3980 (2001) 1 (2006) 323 4 6 16 26 64 170 261 1370 2250
2020-02-24 00:00 2.41 40 3980 (2001) 1 (2006) 323 4 6 16 26 64 170 261 1370 2250
2020-02-23 23:30 2.42 41 9700 (1985) 1 (2006) 431 5 10 17 28 71 138 333 998 1480
2020-02-23 23:00 2.42 41 9700 (1985) 1 (2006) 431 5 10 17 28 71 138 333 998 1480
2020-02-23 22:30 2.43 42 9700 (1985) 1 (2006) 431 5 10 17 28 71 138 333 998 1480
2020-02-23 22:00 2.43 42 9700 (1985) 1 (2006) 431 5 10 17 28 71 138 333 998 1480
2020-02-23 21:30 2.43 42 9700 (1985) 1 (2006) 431 5 10 17 28 71 138 333 998 1480
2020-02-23 21:00 2.43 42 9700 (1985) 1 (2006) 431 5 10 17 28 71 138 333 998 1480
2020-02-23 20:30 2.42 41 9700 (1985) 1 (2006) 431 5 10 17 28 71 138 333 998 1480
2020-02-23 20:00 2.44 43 9700 (1985) 1 (2006) 431 5 10 17 28 71 138 333 998 1480
2020-02-23 19:30 2.43 42 9700 (1985) 1 (2006) 431 5 10 17 28 71 138 333 998 1480
2020-02-23 19:00 2.44 43 9700 (1985) 1 (2006) 431 5 10 17 28 71 138 333 998 1480
2020-02-23 18:30 2.42 41 9700 (1985) 1 (2006) 431 5 10 17 28 71 138 333 998 1480
2020-02-23 18:00 2.44 43 9700 (1985) 1 (2006) 431 5 10 17 28 71 138 333 998 1480
2020-02-23 17:30 2.44 43 9700 (1985) 1 (2006) 431 5 10 17 28 71 138 333 998 1480
2020-02-23 17:00 2.43 42 9700 (1985) 1 (2006) 431 5 10 17 28 71 138 333 998 1480
2020-02-23 16:30 2.44 43 9700 (1985) 1 (2006) 431 5 10 17 28 71 138 333 998 1480
2020-02-23 16:00 2.41 40 9700 (1985) 1 (2006) 431 5 10 17 28 71 138 333 998 1480
2020-02-23 15:30 2.41 40 9700 (1985) 1 (2006) 431 5 10 17 28 71 138 333 998 1480
2020-02-23 15:00 2.42 41 9700 (1985) 1 (2006) 431 5 10 17 28 71 138 333 998 1480
2020-02-23 14:30 2.43 42 9700 (1985) 1 (2006) 431 5 10 17 28 71 138 333 998 1480
2020-02-23 14:00 2.43 42 9700 (1985) 1 (2006) 431 5 10 17 28 71 138 333 998 1480
2020-02-23 13:30 2.42 41 9700 (1985) 1 (2006) 431 5 10 17 28 71 138 333 998 1480
2020-02-23 13:00 2.42 41 9700 (1985) 1 (2006) 431 5 10 17 28 71 138 333 998 1480
2020-02-23 12:00 2.43 42 9700 (1985) 1 (2006) 431 5 10 17 28 71 138 333 998 1480
2020-02-23 11:30 2.45 44 9700 (1985) 1 (2006) 431 5 10 17 28 71 138 333 998 1480
2020-02-23 11:00 2.42 41 9700 (1985) 1 (2006) 431 5 10 17 28 71 138 333 998 1480
2020-02-23 10:30 2.43 42 9700 (1985) 1 (2006) 431 5 10 17 28 71 138 333 998 1480
2020-02-23 10:00 2.43 42 9700 (1985) 1 (2006) 431 5 10 17 28 71 138 333 998 1480
2020-02-23 09:30 2.42 41 9700 (1985) 1 (2006) 431 5 10 17 28 71 138 333 998 1480
2020-02-23 09:00 2.43 42 9700 (1985) 1 (2006) 431 5 10 17 28 71 138 333 998 1480
2020-02-23 08:30 2.44 43 9700 (1985) 1 (2006) 431 5 10 17 28 71 138 333 998 1480
2020-02-23 08:00 2.44 43 9700 (1985) 1 (2006) 431 5 10 17 28 71 138 333 998 1480
2020-02-23 07:30 2.44 43 9700 (1985) 1 (2006) 431 5 10 17 28 71 138 333 998 1480
2020-02-23 07:00 2.43 42 9700 (1985) 1 (2006) 431 5 10 17 28 71 138 333 998 1480
2020-02-23 06:30 2.43 42 9700 (1985) 1 (2006) 431 5 10 17 28 71 138 333 998 1480
2020-02-23 06:00 2.43 42 9700 (1985) 1 (2006) 431 5 10 17 28 71 138 333 998 1480
2020-02-23 05:30 2.43 42 9700 (1985) 1 (2006) 431 5 10 17 28 71 138 333 998 1480
2020-02-23 05:00 2.43 42 9700 (1985) 1 (2006) 431 5 10 17 28 71 138 333 998 1480
2020-02-23 04:30 2.43 42 9700 (1985) 1 (2006) 431 5 10 17 28 71 138 333 998 1480
2020-02-23 04:00 2.42 41 9700 (1985) 1 (2006) 431 5 10 17 28 71 138 333 998 1480
2020-02-23 03:30 2.43 42 9700 (1985) 1 (2006) 431 5 10 17 28 71 138 333 998 1480
2020-02-23 03:00 2.44 43 9700 (1985) 1 (2006) 431 5 10 17 28 71 138 333 998 1480
2020-02-23 02:30 2.44 43 9700 (1985) 1 (2006) 431 5 10 17 28 71 138 333 998 1480
2020-02-23 02:00 2.44 43 9700 (1985) 1 (2006) 431 5 10 17 28 71 138 333 998 1480
2020-02-23 01:30 2.44 43 9700 (1985) 1 (2006) 431 5 10 17 28 71 138 333 998 1480
2020-02-23 01:00 2.44 43 9700 (1985) 1 (2006) 431 5 10 17 28 71 138 333 998 1480
2020-02-23 00:30 2.44 43 9700 (1985) 1 (2006) 431 5 10 17 28 71 138 333 998 1480
2020-02-23 00:00 2.45 44 9700 (1985) 1 (2006) 431 5 10 17 28 71 138 333 998 1480
2020-02-22 23:30 2.44 43 5360 (1985) 1 (2006) 458 5 12 18 26 82 180 347 1800 3290
2020-02-22 23:00 2.43 42 5360 (1985) 1 (2006) 458 5 12 18 26 82 180 347 1800 3290
2020-02-22 22:30 2.44 43 5360 (1985) 1 (2006) 458 5 12 18 26 82 180 347 1800 3290
2020-02-22 22:00 2.44 43 5360 (1985) 1 (2006) 458 5 12 18 26 82 180 347 1800 3290
2020-02-22 21:30 2.44 43 5360 (1985) 1 (2006) 458 5 12 18 26 82 180 347 1800 3290
2020-02-22 21:00 2.44 43 5360 (1985) 1 (2006) 458 5 12 18 26 82 180 347 1800 3290
2020-02-22 20:30 2.44 43 5360 (1985) 1 (2006) 458 5 12 18 26 82 180 347 1800 3290
2020-02-22 20:00 2.46 45 5360 (1985) 1 (2006) 458 5 12 18 26 82 180 347 1800 3290
2020-02-22 19:30 2.46 45 5360 (1985) 1 (2006) 458 5 12 18 26 82 180 347 1800 3290
2020-02-22 19:00 2.46 45 5360 (1985) 1 (2006) 458 5 12 18 26 82 180 347 1800 3290
2020-02-22 18:30 2.47 46 5360 (1985) 1 (2006) 458 5 12 18 26 82 180 347 1800 3290
2020-02-22 18:00 2.46 45 5360 (1985) 1 (2006) 458 5 12 18 26 82 180 347 1800 3290
2020-02-22 17:30 2.46 45 5360 (1985) 1 (2006) 458 5 12 18 26 82 180 347 1800 3290
2020-02-22 17:00 2.46 45 5360 (1985) 1 (2006) 458 5 12 18 26 82 180 347 1800 3290
2020-02-22 16:30 2.47 46 5360 (1985) 1 (2006) 458 5 12 18 26 82 180 347 1800 3290
2020-02-22 16:00 2.47 46 5360 (1985) 1 (2006) 458 5 12 18 26 82 180 347 1800 3290
2020-02-22 15:30 2.46 45 5360 (1985) 1 (2006) 458 5 12 18 26 82 180 347 1800 3290
2020-02-22 15:00 2.47 46 5360 (1985) 1 (2006) 458 5 12 18 26 82 180 347 1800 3290
2020-02-22 14:30 2.47 46 5360 (1985) 1 (2006) 458 5 12 18 26 82 180 347 1800 3290
2020-02-22 14:00 2.47 46 5360 (1985) 1 (2006) 458 5 12 18 26 82 180 347 1800 3290
2020-02-22 13:30 2.48 47 5360 (1985) 1 (2006) 458 5 12 18 26 82 180 347 1800 3290
2020-02-22 13:00 2.48 47 5360 (1985) 1 (2006) 458 5 12 18 26 82 180 347 1800 3290
2020-02-22 12:30 2.47 46 5360 (1985) 1 (2006) 458 5 12 18 26 82 180 347 1800 3290
2020-02-22 12:00 2.48 47 5360 (1985) 1 (2006) 458 5 12 18 26 82 180 347 1800 3290
2020-02-22 11:30 2.48 47 5360 (1985) 1 (2006) 458 5 12 18 26 82 180 347 1800 3290
2020-02-22 11:00 2.49 48 5360 (1985) 1 (2006) 458 5 12 18 26 82 180 347 1800 3290
2020-02-22 10:30 2.48 47 5360 (1985) 1 (2006) 458 5 12 18 26 82 180 347 1800 3290
2020-02-22 10:00 2.49 48 5360 (1985) 1 (2006) 458 5 12 18 26 82 180 347 1800 3290
2020-02-22 09:30 2.48 47 5360 (1985) 1 (2006) 458 5 12 18 26 82 180 347 1800 3290
2020-02-22 09:00 2.49 48 5360 (1985) 1 (2006) 458 5 12 18 26 82 180 347 1800 3290
2020-02-22 08:30 2.49 48 5360 (1985) 1 (2006) 458 5 12 18 26 82 180 347 1800 3290
2020-02-22 08:00 2.51 50 5360 (1985) 1 (2006) 458 5 12 18 26 82 180 347 1800 3290
2020-02-22 07:30 2.50 49 5360 (1985) 1 (2006) 458 5 12 18 26 82 180 347 1800 3290
2020-02-22 07:00 2.50 49 5360 (1985) 1 (2006) 458 5 12 18 26 82 180 347 1800 3290
2020-02-22 06:30 2.51 50 5360 (1985) 1 (2006) 458 5 12 18 26 82 180 347 1800 3290
2020-02-22 06:00 2.50 49 5360 (1985) 1 (2006) 458 5 12 18 26 82 180 347 1800 3290
2020-02-22 05:30 2.51 50 5360 (1985) 1 (2006) 458 5 12 18 26 82 180 347 1800 3290
2020-02-22 05:00 2.51 50 5360 (1985) 1 (2006) 458 5 12 18 26 82 180 347 1800 3290
2020-02-22 04:30 2.51 50 5360 (1985) 1 (2006) 458 5 12 18 26 82 180 347 1800 3290
2020-02-22 04:00 2.51 50 5360 (1985) 1 (2006) 458 5 12 18 26 82 180 347 1800 3290
2020-02-22 03:30 2.51 50 5360 (1985) 1 (2006) 458 5 12 18 26 82 180 347 1800 3290
2020-02-22 03:00 2.52 51 5360 (1985) 1 (2006) 458 5 12 18 26 82 180 347 1800 3290
2020-02-22 02:30 2.52 51 5360 (1985) 1 (2006) 458 5 12 18 26 82 180 347 1800 3290
2020-02-22 02:00 2.52 51 5360 (1985) 1 (2006) 458 5 12 18 26 82 180 347 1800 3290
2020-02-22 01:30 2.52 51 5360 (1985) 1 (2006) 458 5 12 18 26 82 180 347 1800 3290
2020-02-22 01:00 2.53 52 5360 (1985) 1 (2006) 458 5 12 18 26 82 180 347 1800 3290
2020-02-22 00:30 2.53 52 5360 (1985) 1 (2006) 458 5 12 18 26 82 180 347 1800 3290
2020-02-22 00:00 2.54 54 5360 (1985) 1 (2006) 458 5 12 18 26 82 180 347 1800 3290
2020-02-21 23:30 2.53 52 8580 (1997) 1 (2006) 494 5 8 25 28 90 305 400 1260 2130
2020-02-21 23:00 2.54 54 8580 (1997) 1 (2006) 494 5 8 25 28 90 305 400 1260 2130
2020-02-21 22:30 2.53 52 8580 (1997) 1 (2006) 494 5 8 25 28 90 305 400 1260 2130
2020-02-21 22:00 2.54 54 8580 (1997) 1 (2006) 494 5 8 25 28 90 305 400 1260 2130
2020-02-21 21:30 2.54 54 8580 (1997) 1 (2006) 494 5 8 25 28 90 305 400 1260 2130
2020-02-21 21:00 2.55 55 8580 (1997) 1 (2006) 494 5 8 25 28 90 305 400 1260 2130
2020-02-21 20:30 2.54 54 8580 (1997) 1 (2006) 494 5 8 25 28 90 305 400 1260 2130
2020-02-21 20:00 2.54 54 8580 (1997) 1 (2006) 494 5 8 25 28 90 305 400 1260 2130
2020-02-21 19:30 2.56 56 8580 (1997) 1 (2006) 494 5 8 25 28 90 305 400 1260 2130
2020-02-21 19:00 2.53 52 8580 (1997) 1 (2006) 494 5 8 25 28 90 305 400 1260 2130
2020-02-21 18:30 2.53 52 8580 (1997) 1 (2006) 494 5 8 25 28 90 305 400 1260 2130
2020-02-21 18:00 2.54 54 8580 (1997) 1 (2006) 494 5 8 25 28 90 305 400 1260 2130
2020-02-21 17:30 2.55 55 8580 (1997) 1 (2006) 494 5 8 25 28 90 305 400 1260 2130
2020-02-21 17:00 2.55 55 8580 (1997) 1 (2006) 494 5 8 25 28 90 305 400 1260 2130
2020-02-21 16:30 2.54 54 8580 (1997) 1 (2006) 494 5 8 25 28 90 305 400 1260 2130
2020-02-21 16:00 2.54 54 8580 (1997) 1 (2006) 494 5 8 25 28 90 305 400 1260 2130
2020-02-21 15:30 2.54 54 8580 (1997) 1 (2006) 494 5 8 25 28 90 305 400 1260 2130
2020-02-21 15:00 2.54 54 8580 (1997) 1 (2006) 494 5 8 25 28 90 305 400 1260 2130
2020-02-21 14:30 2.53 52 8580 (1997) 1 (2006) 494 5 8 25 28 90 305 400 1260 2130
2020-02-21 14:00 2.54 54 8580 (1997) 1 (2006) 494 5 8 25 28 90 305 400 1260 2130
2020-02-21 13:30 2.54 54 8580 (1997) 1 (2006) 494 5 8 25 28 90 305 400 1260 2130
2020-02-21 13:00 2.55 55 8580 (1997) 1 (2006) 494 5 8 25 28 90 305 400 1260 2130
2020-02-21 12:30 2.56 56 8580 (1997) 1 (2006) 494 5 8 25 28 90 305 400 1260 2130
2020-02-21 12:00 2.57 57 8580 (1997) 1 (2006) 494 5 8 25 28 90 305 400 1260 2130
2020-02-21 11:30 2.58 58 8580 (1997) 1 (2006) 494 5 8 25 28 90 305 400 1260 2130
2020-02-21 11:00 2.58 58 8580 (1997) 1 (2006) 494 5 8 25 28 90 305 400 1260 2130
2020-02-21 10:30 2.58 58 8580 (1997) 1 (2006) 494 5 8 25 28 90 305 400 1260 2130
2020-02-21 10:00 2.57 57 8580 (1997) 1 (2006) 494 5 8 25 28 90 305 400 1260 2130
2020-02-21 09:30 2.58 58 8580 (1997) 1 (2006) 494 5 8 25 28 90 305 400 1260 2130
2020-02-21 09:00 2.60 60 8580 (1997) 1 (2006) 494 5 8 25 28 90 305 400 1260 2130
2020-02-21 08:30 2.59 59 8580 (1997) 1 (2006) 494 5 8 25 28 90 305 400 1260 2130
2020-02-21 08:00 2.58 58 8580 (1997) 1 (2006) 494 5 8 25 28 90 305 400 1260 2130
2020-02-21 07:30 2.61 61 8580 (1997) 1 (2006) 494 5 8 25 28 90 305 400 1260 2130
2020-02-21 07:00 2.61 61 8580 (1997) 1 (2006) 494 5 8 25 28 90 305 400 1260 2130
2020-02-21 06:30 2.62 63 8580 (1997) 1 (2006) 494 5 8 25 28 90 305 400 1260 2130
2020-02-21 06:00 2.62 63 8580 (1997) 1 (2006) 494 5 8 25 28 90 305 400 1260 2130
2020-02-21 05:30 2.63 64 8580 (1997) 1 (2006) 494 5 8 25 28 90 305 400 1260 2130
2020-02-21 05:00 2.63 64 8580 (1997) 1 (2006) 494 5 8 25 28 90 305 400 1260 2130
2020-02-21 04:30 2.63 64 8580 (1997) 1 (2006) 494 5 8 25 28 90 305 400 1260 2130
2020-02-21 04:00 2.64 65 8580 (1997) 1 (2006) 494 5 8 25 28 90 305 400 1260 2130
2020-02-21 03:30 2.64 65 8580 (1997) 1 (2006) 494 5 8 25 28 90 305 400 1260 2130
2020-02-21 03:00 2.65 66 8580 (1997) 1 (2006) 494 5 8 25 28 90 305 400 1260 2130
2020-02-21 02:30 2.65 66 8580 (1997) 1 (2006) 494 5 8 25 28 90 305 400 1260 2130
2020-02-21 02:00 2.66 68 8580 (1997) 1 (2006) 494 5 8 25 28 90 305 400 1260 2130
2020-02-21 01:30 2.66 68 8580 (1997) 1 (2006) 494 5 8 25 28 90 305 400 1260 2130
2020-02-21 01:00 2.66 68 8580 (1997) 1 (2006) 494 5 8 25 28 90 305 400 1260 2130
2020-02-21 00:30 2.67 69 8580 (1997) 1 (2006) 494 5 8 25 28 90 305 400 1260 2130
2020-02-21 00:00 2.67 69 8580 (1997) 1 (2006) 494 5 8 25 28 90 305 400 1260 2130
2020-02-20 23:30 2.68 70 2050 (1982) 1 (2006) 249 3 6 25 38 65 225 342 583 1960
2020-02-20 23:00 2.69 71 2050 (1982) 1 (2006) 249 3 6 25 38 65 225 342 583 1960
2020-02-20 22:30 2.69 71 2050 (1982) 1 (2006) 249 3 6 25 38 65 225 342 583 1960
2020-02-20 22:00 2.69 71 2050 (1982) 1 (2006) 249 3 6 25 38 65 225 342 583 1960
2020-02-20 21:30 2.69 71 2050 (1982) 1 (2006) 249 3 6 25 38 65 225 342 583 1960
2020-02-20 21:00 2.70 73 2050 (1982) 1 (2006) 249 3 6 25 38 65 225 342 583 1960
2020-02-20 20:30 2.70 73 2050 (1982) 1 (2006) 249 3 6 25 38 65 225 342 583 1960
2020-02-20 20:00 2.71 74 2050 (1982) 1 (2006) 249 3 6 25 38 65 225 342 583 1960
2020-02-20 19:30 2.70 73 2050 (1982) 1 (2006) 249 3 6 25 38 65 225 342 583 1960
2020-02-20 19:00 2.71 74 2050 (1982) 1 (2006) 249 3 6 25 38 65 225 342 583 1960
2020-02-20 18:30 2.72 75 2050 (1982) 1 (2006) 249 3 6 25 38 65 225 342 583 1960
2020-02-20 18:00 2.73 77 2050 (1982) 1 (2006) 249 3 6 25 38 65 225 342 583 1960
2020-02-20 17:30 2.73 77 2050 (1982) 1 (2006) 249 3 6 25 38 65 225 342 583 1960
2020-02-20 17:00 2.74 78 2050 (1982) 1 (2006) 249 3 6 25 38 65 225 342 583 1960
2020-02-20 16:30 2.75 79 2050 (1982) 1 (2006) 249 3 6 25 38 65 225 342 583 1960
2020-02-20 16:00 2.76 81 2050 (1982) 1 (2006) 249 3 6 25 38 65 225 342 583 1960
2020-02-20 15:30 2.76 81 2050 (1982) 1 (2006) 249 3 6 25 38 65 225 342 583 1960
2020-02-20 15:00 2.76 81 2050 (1982) 1 (2006) 249 3 6 25 38 65 225 342 583 1960
2020-02-20 14:30 2.78 83 2050 (1982) 1 (2006) 249 3 6 25 38 65 225 342 583 1960
2020-02-20 14:00 2.78 83 2050 (1982) 1 (2006) 249 3 6 25 38 65 225 342 583 1960
2020-02-20 13:30 2.78 83 2050 (1982) 1 (2006) 249 3 6 25 38 65 225 342 583 1960
2020-02-20 13:00 2.78 83 2050 (1982) 1 (2006) 249 3 6 25 38 65 225 342 583 1960
2020-02-20 12:30 2.79 85 2050 (1982) 1 (2006) 249 3 6 25 38 65 225 342 583 1960
2020-02-20 12:00 2.79 85 2050 (1982) 1 (2006) 249 3 6 25 38 65 225 342 583 1960
2020-02-20 11:30 2.80 86 2050 (1982) 1 (2006) 249 3 6 25 38 65 225 342 583 1960
2020-02-20 11:00 2.81 87 2050 (1982) 1 (2006) 249 3 6 25 38 65 225 342 583 1960
2020-02-20 10:30 2.82 89 2050 (1982) 1 (2006) 249 3 6 25 38 65 225 342 583 1960
2020-02-20 10:00 2.83 90 2050 (1982) 1 (2006) 249 3 6 25 38 65 225 342 583 1960
2020-02-20 09:30 2.83 90 2050 (1982) 1 (2006) 249 3 6 25 38 65 225 342 583 1960
2020-02-20 09:00 2.84 92 2050 (1982) 1 (2006) 249 3 6 25 38 65 225 342 583 1960
2020-02-20 08:30 2.83 90 2050 (1982) 1 (2006) 249 3 6 25 38 65 225 342 583 1960
2020-02-20 08:00 2.86 95 2050 (1982) 1 (2006) 249 3 6 25 38 65 225 342 583 1960
2020-02-20 07:30 2.86 95 2050 (1982) 1 (2006) 249 3 6 25 38 65 225 342 583 1960
2020-02-20 07:00 2.87 96 2050 (1982) 1 (2006) 249 3 6 25 38 65 225 342 583 1960
2020-02-20 06:30 2.87 96 2050 (1982) 1 (2006) 249 3 6 25 38 65 225 342 583 1960
2020-02-20 06:00 2.88 98 2050 (1982) 1 (2006) 249 3 6 25 38 65 225 342 583 1960
2020-02-20 05:30 2.89 99 2050 (1982) 1 (2006) 249 3 6 25 38 65 225 342 583 1960
2020-02-20 05:00 2.91 102 2050 (1982) 1 (2006) 249 3 6 25 38 65 225 342 583 1960
2020-02-20 04:30 2.91 102 2050 (1982) 1 (2006) 249 3 6 25 38 65 225 342 583 1960
2020-02-20 04:00 2.92 104 2050 (1982) 1 (2006) 249 3 6 25 38 65 225 342 583 1960
2020-02-20 03:30 2.94 107 2050 (1982) 1 (2006) 249 3 6 25 38 65 225 342 583 1960
2020-02-20 03:00 2.95 108 2050 (1982) 1 (2006) 249 3 6 25 38 65 225 342 583 1960
2020-02-20 02:30 2.94 107 2050 (1982) 1 (2006) 249 3 6 25 38 65 225 342 583 1960
2020-02-20 02:00 2.97 112 2050 (1982) 1 (2006) 249 3 6 25 38 65 225 342 583 1960
2020-02-20 01:30 2.98 113 2050 (1982) 1 (2006) 249 3 6 25 38 65 225 342 583 1960
2020-02-20 01:00 2.99 115 2050 (1982) 1 (2006) 249 3 6 25 38 65 225 342 583 1960
2020-02-20 00:30 2.99 115 2050 (1982) 1 (2006) 249 3 6 25 38 65 225 342 583 1960
2020-02-20 00:00 3.00 116 2050 (1982) 1 (2006) 249 3 6 25 38 65 225 342 583 1960
2020-02-19 23:30 3.03 121 2410 (1982) 1 (2006) 243 3 6 18 24 61 237 306 844 1250
2020-02-19 23:00 3.03 121 2410 (1982) 1 (2006) 243 3 6 18 24 61 237 306 844 1250
2020-02-19 22:30 3.04 123 2410 (1982) 1 (2006) 243 3 6 18 24 61 237 306 844 1250
2020-02-19 22:00 3.05 125 2410 (1982) 1 (2006) 243 3 6 18 24 61 237 306 844 1250
2020-02-19 21:30 3.06 127 2410 (1982) 1 (2006) 243 3 6 18 24 61 237 306 844 1250
2020-02-19 21:00 3.08 130 2410 (1982) 1 (2006) 243 3 6 18 24 61 237 306 844 1250
2020-02-19 20:30 3.07 128 2410 (1982) 1 (2006) 243 3 6 18 24 61 237 306 844 1250
2020-02-19 19:30 3.13 139 2410 (1982) 1 (2006) 243 3 6 18 24 61 237 306 844 1250
2020-02-19 19:00 3.13 139 2410 (1982) 1 (2006) 243 3 6 18 24 61 237 306 844 1250
2020-02-19 18:30 3.14 141 2410 (1982) 1 (2006) 243 3 6 18 24 61 237 306 844 1250
2020-02-19 18:00 3.15 142 2410 (1982) 1 (2006) 243 3 6 18 24 61 237 306 844 1250
2020-02-19 17:30 3.16 144 2410 (1982) 1 (2006) 243 3 6 18 24 61 237 306 844 1250
2020-02-19 17:00 3.17 146 2410 (1982) 1 (2006) 243 3 6 18 24 61 237 306 844 1250
2020-02-19 16:30 3.17 146 2410 (1982) 1 (2006) 243 3 6 18 24 61 237 306 844 1250
2020-02-19 16:00 3.20 152 2410 (1982) 1 (2006) 243 3 6 18 24 61 237 306 844 1250
2020-02-19 15:30 3.21 154 2410 (1982) 1 (2006) 243 3 6 18 24 61 237 306 844 1250
2020-02-19 15:00 3.21 154 2410 (1982) 1 (2006) 243 3 6 18 24 61 237 306 844 1250
2020-02-19 14:30 3.23 157 2410 (1982) 1 (2006) 243 3 6 18 24 61 237 306 844 1250
2020-02-19 14:00 3.24 159 2410 (1982) 1 (2006) 243 3 6 18 24 61 237 306 844 1250
2020-02-19 13:30 3.25 161 2410 (1982) 1 (2006) 243 3 6 18 24 61 237 306 844 1250
2020-02-19 13:00 3.28 167 2410 (1982) 1 (2006) 243 3 6 18 24 61 237 306 844 1250
2020-02-19 12:30 3.29 169 2410 (1982) 1 (2006) 243 3 6 18 24 61 237 306 844 1250
2020-02-19 12:00 3.30 171 2410 (1982) 1 (2006) 243 3 6 18 24 61 237 306 844 1250
2020-02-19 11:30 3.30 171 2410 (1982) 1 (2006) 243 3 6 18 24 61 237 306 844 1250
2020-02-19 11:00 3.31 173 2410 (1982) 1 (2006) 243 3 6 18 24 61 237 306 844 1250
2020-02-19 10:30 3.34 179 2410 (1982) 1 (2006) 243 3 6 18 24 61 237 306 844 1250
2020-02-19 10:00 3.36 183 2410 (1982) 1 (2006) 243 3 6 18 24 61 237 306 844 1250
2020-02-19 09:30 3.38 188 2410 (1982) 1 (2006) 243 3 6 18 24 61 237 306 844 1250
2020-02-19 09:00 3.38 188 2410 (1982) 1 (2006) 243 3 6 18 24 61 237 306 844 1250
2020-02-19 08:30 3.42 196 2410 (1982) 1 (2006) 243 3 6 18 24 61 237 306 844 1250
2020-02-19 08:00 3.43 198 2410 (1982) 1 (2006) 243 3 6 18 24 61 237 306 844 1250
2020-02-19 07:30 3.42 196 2410 (1982) 1 (2006) 243 3 6 18 24 61 237 306 844 1250
2020-02-19 07:00 3.45 203 2410 (1982) 1 (2006) 243 3 6 18 24 61 237 306 844 1250
2020-02-19 06:30 3.46 205 2410 (1982) 1 (2006) 243 3 6 18 24 61 237 306 844 1250
2020-02-19 06:00 3.48 209 2410 (1982) 1 (2006) 243 3 6 18 24 61 237 306 844 1250
2020-02-19 05:30 3.51 216 2410 (1982) 1 (2006) 243 3 6 18 24 61 237 306 844 1250
2020-02-19 05:00 3.53 220 2410 (1982) 1 (2006) 243 3 6 18 24 61 237 306 844 1250
2020-02-19 04:30 3.54 223 2410 (1982) 1 (2006) 243 3 6 18 24 61 237 306 844 1250
2020-02-19 04:00 3.57 230 2410 (1982) 1 (2006) 243 3 6 18 24 61 237 306 844 1250
2020-02-19 03:30 3.59 234 2410 (1982) 1 (2006) 243 3 6 18 24 61 237 306 844 1250
2020-02-19 03:00 3.62 241 2410 (1982) 1 (2006) 243 3 6 18 24 61 237 306 844 1250
2020-02-19 02:30 3.65 249 2410 (1982) 1 (2006) 243 3 6 18 24 61 237 306 844 1250
2020-02-19 02:00 3.67 253 2410 (1982) 1 (2006) 243 3 6 18 24 61 237 306 844 1250
2020-02-19 01:30 3.70 261 2410 (1982) 1 (2006) 243 3 6 18 24 61 237 306 844 1250
2020-02-19 01:00 3.73 268 2410 (1982) 1 (2006) 243 3 6 18 24 61 237 306 844 1250
2020-02-19 00:30 3.75 273 2410 (1982) 1 (2006) 243 3 6 18 24 61 237 306 844 1250
2020-02-19 00:00 3.78 281 2410 (1982) 1 (2006) 243 3 6 18 24 61 237 306 844 1250
2020-02-18 23:30 3.81 289 1590 (2011) 1 (2006) 242 3 5 15 21 61 142 229 993 1500
2020-02-18 23:00 3.83 294 1590 (2011) 1 (2006) 242 3 5 15 21 61 142 229 993 1500
2020-02-18 22:30 3.87 305 1590 (2011) 1 (2006) 242 3 5 15 21 61 142 229 993 1500
2020-02-18 22:00 3.88 308 1590 (2011) 1 (2006) 242 3 5 15 21 61 142 229 993 1500
2020-02-18 21:30 3.93 321 1590 (2011) 1 (2006) 242 3 5 15 21 61 142 229 993 1500
2020-02-18 21:00 3.95 327 1590 (2011) 1 (2006) 242 3 5 15 21 61 142 229 993 1500
2020-02-18 20:30 3.99 338 1590 (2011) 1 (2006) 242 3 5 15 21 61 142 229 993 1500
2020-02-18 20:00 4.02 347 1590 (2011) 1 (2006) 242 3 5 15 21 61 142 229 993 1500
2020-02-18 19:30 4.06 358 1590 (2011) 1 (2006) 242 3 5 15 21 61 142 229 993 1500
2020-02-18 19:00 4.10 370 1590 (2011) 1 (2006) 242 3 5 15 21 61 142 229 993 1500
2020-02-18 18:30 4.15 385 1590 (2011) 1 (2006) 242 3 5 15 21 61 142 229 993 1500
2020-02-18 18:00 4.16 388 1590 (2011) 1 (2006) 242 3 5 15 21 61 142 229 993 1500
2020-02-18 17:30 4.21 404 1590 (2011) 1 (2006) 242 3 5 15 21 61 142 229 993 1500
2020-02-18 17:00 4.24 413 1590 (2011) 1 (2006) 242 3 5 15 21 61 142 229 993 1500
2020-02-18 16:30 4.29 429 1590 (2011) 1 (2006) 242 3 5 15 21 61 142 229 993 1500
2020-02-18 16:00 4.33 442 1590 (2011) 1 (2006) 242 3 5 15 21 61 142 229 993 1500
2020-02-18 15:30 4.36 451 1590 (2011) 1 (2006) 242 3 5 15 21 61 142 229 993 1500
2020-02-18 15:00 4.41 468 1590 (2011) 1 (2006) 242 3 5 15 21 61 142 229 993 1500
2020-02-18 14:30 4.44 478 1590 (2011) 1 (2006) 242 3 5 15 21 61 142 229 993 1500
2020-02-18 14:00 4.47 488 1590 (2011) 1 (2006) 242 3 5 15 21 61 142 229 993 1500
2020-02-18 13:30 4.50 498 1590 (2011) 1 (2006) 242 3 5 15 21 61 142 229 993 1500
2020-02-18 13:00 4.56 519 1590 (2011) 1 (2006) 242 3 5 15 21 61 142 229 993 1500
2020-02-18 12:30 4.58 526 1590 (2011) 1 (2006) 242 3 5 15 21 61 142 229 993 1500
2020-02-18 12:00 4.60 533 1590 (2011) 1 (2006) 242 3 5 15 21 61 142 229 993 1500
2020-02-18 11:30 4.64 548 1590 (2011) 1 (2006) 242 3 5 15 21 61 142 229 993 1500
2020-02-18 11:00 4.67 558 1590 (2011) 1 (2006) 242 3 5 15 21 61 142 229 993 1500
2020-02-18 10:30 4.70 569 1590 (2011) 1 (2006) 242 3 5 15 21 61 142 229 993 1500
2020-02-18 10:00 4.72 577 1590 (2011) 1 (2006) 242 3 5 15 21 61 142 229 993 1500
2020-02-18 09:30 4.73 581 1590 (2011) 1 (2006) 242 3 5 15 21 61 142 229 993 1500
2020-02-18 09:00 4.76 592 1590 (2011) 1 (2006) 242 3 5 15 21 61 142 229 993 1500
2020-02-18 08:30 4.78 599 1590 (2011) 1 (2006) 242 3 5 15 21 61 142 229 993 1500
2020-02-18 08:00 4.80 607 1590 (2011) 1 (2006) 242 3 5 15 21 61 142 229 993 1500
2020-02-18 07:30 4.83 618 1590 (2011) 1 (2006) 242 3 5 15 21 61 142 229 993 1500
2020-02-18 07:00 4.84 622 1590 (2011) 1 (2006) 242 3 5 15 21 61 142 229 993 1500
2020-02-18 06:30 4.86 630 1590 (2011) 1 (2006) 242 3 5 15 21 61 142 229 993 1500
2020-02-18 06:00 4.88 638 1590 (2011) 1 (2006) 242 3 5 15 21 61 142 229 993 1500
2020-02-18 05:30 4.90 645 1590 (2011) 1 (2006) 242 3 5 15 21 61 142 229 993 1500
2020-02-18 05:00 4.92 653 1590 (2011) 1 (2006) 242 3 5 15 21 61 142 229 993 1500
2020-02-18 04:30 4.95 665 1590 (2011) 1 (2006) 242 3 5 15 21 61 142 229 993 1500
2020-02-18 04:00 4.96 669 1590 (2011) 1 (2006) 242 3 5 15 21 61 142 229 993 1500
2020-02-18 03:30 4.98 677 1590 (2011) 1 (2006) 242 3 5 15 21 61 142 229 993 1500
2020-02-18 03:00 5.02 693 1590 (2011) 1 (2006) 242 3 5 15 21 61 142 229 993 1500
2020-02-18 02:30 5.03 697 1590 (2011) 1 (2006) 242 3 5 15 21 61 142 229 993 1500
2020-02-18 02:00 5.02 693 1590 (2011) 1 (2006) 242 3 5 15 21 61 142 229 993 1500
2020-02-18 01:30 5.04 701 1590 (2011) 1 (2006) 242 3 5 15 21 61 142 229 993 1500
2020-02-18 01:00 5.05 706 1590 (2011) 1 (2006) 242 3 5 15 21 61 142 229 993 1500
2020-02-18 00:30 5.03 697 1590 (2011) 1 (2006) 242 3 5 15 21 61 142 229 993 1500
2020-02-18 00:00 5.03 697 1590 (2011) 1 (2006) 242 3 5 15 21 61 142 229 993 1500

A total of 363 rows are displayed for years 1980 through 2019.